Time;durP1;ratioP1;P1;durP2;ratioP2;P2;SDS_P1;SDS_P2;PMS_P1;PMS_P2;Temp;Humidity;BMP_temperature;BMP_pressure;BME280_temperature;BME280_humidity;BME280_pressure;Samples;Min_cycle;Max_cycle;Signal;HPM_P1;HPM_P2
2023/11/16 00:01:28;;;;;;;0.60;0.60;;;;;;;13.72;55.65;96739.75;5067769;28;20048;-62
2023/11/16 00:03:55;;;;;;;0.60;0.60;;;;;;;13.67;56.29;96738.97;5067411;28;20099;-61
2023/11/16 00:06:22;;;;;;;0.50;0.50;;;;;;;13.54;56.57;96735.00;5067464;28;20053;-62
2023/11/16 00:08:49;;;;;;;0.60;0.60;;;;;;;13.57;57.72;96778.72;5067172;28;20060;-61
2023/11/16 00:11:17;;;;;;;0.60;0.60;;;;;;;13.52;56.41;96765.19;5067558;28;20061;-61
2023/11/16 00:13:46;;;;;;;0.60;0.60;;;;;;;13.51;56.20;96758.03;5066792;28;20490;-60
2023/11/16 00:16:16;;;;;;;0.50;0.50;;;;;;;13.49;56.10;96749.31;5067146;28;20049;-60
2023/11/16 00:18:43;;;;;;;0.60;0.60;;;;;;;13.32;57.00;96732.59;5067021;28;20052;-60
2023/11/16 00:21:10;;;;;;;0.60;0.60;;;;;;;13.41;56.31;96766.38;5067165;28;20048;-60
2023/11/16 00:23:37;;;;;;;0.50;0.50;;;;;;;13.47;55.53;96773.13;5066979;28;20497;-60
2023/11/16 00:26:04;;;;;;;0.60;0.60;;;;;;;13.47;54.37;96779.50;5082141;28;20133;-61
2023/11/16 00:28:31;;;;;;;0.55;0.55;;;;;;;13.46;54.71;96782.69;5066723;28;20053;-60
2023/11/16 00:30:57;;;;;;;0.52;0.52;;;;;;;13.45;55.47;96776.31;5066512;28;20059;-60
2023/11/16 00:33:25;;;;;;;0.60;0.60;;;;;;;13.44;56.39;96762.78;5067063;28;20083;-60
2023/11/16 00:35:55;;;;;;;0.50;0.50;;;;;;;13.34;57.38;96758.81;5066900;28;20059;-60
2023/11/16 00:38:22;;;;;;;0.60;0.60;;;;;;;13.25;56.78;96772.31;5082088;28;20478;-60
2023/11/16 00:40:50;;;;;;;0.50;0.50;;;;;;;13.05;54.88;96757.16;5065109;28;20056;-60
2023/11/16 00:43:16;;;;;;;0.60;0.60;;;;;;;13.24;53.48;96748.47;5066068;28;20135;-60
2023/11/16 00:45:43;;;;;;;0.57;0.57;;;;;;;13.27;53.75;96744.91;5065777;28;20049;-60
2023/11/16 00:48:11;;;;;;;0.60;0.60;;;;;;;13.38;54.00;96742.94;5061336;28;20202;-60
2023/11/16 00:50:38;;;;;;;0.50;0.50;;;;;;;13.30;54.74;96730.19;5046252;28;20140;-61
2023/11/16 00:53:05;;;;;;;0.50;0.50;;;;;;;13.11;55.13;96719.44;5046030;28;20053;-60
2023/11/16 00:55:31;;;;;;;0.60;0.60;;;;;;;13.04;56.40;96711.06;5046342;28;20612;-61
2023/11/16 00:57:58;;;;;;;0.50;0.50;;;;;;;13.00;56.39;96718.63;5045899;28;20122;-61
2023/11/16 01:00:28;;;;;;;0.50;0.50;;;;;;;13.03;56.01;96715.06;5045919;28;20162;-60
2023/11/16 01:02:56;;;;;;;0.50;0.50;;;;;;;12.96;55.82;96717.00;5066454;28;20048;-61
2023/11/16 01:05:24;;;;;;;0.50;0.50;;;;;;;13.02;55.68;96709.88;5066063;28;20053;-60
2023/11/16 01:07:51;;;;;;;0.60;0.60;;;;;;;12.90;54.26;96730.47;5048588;28;20102;-61
2023/11/16 01:10:23;;;;;;;0.52;0.52;;;;;;;12.61;53.03;96675.19;5065143;28;20083;-60
2023/11/16 01:12:53;;;;;;;0.50;0.50;;;;;;;12.74;54.31;96713.34;5068649;28;20545;-62
2023/11/16 01:15:22;;;;;;;0.50;0.50;;;;;;;12.64;54.16;96718.88;5067837;28;20050;-61
2023/11/16 01:17:51;;;;;;;0.50;0.50;;;;;;;12.47;53.58;96725.16;5085935;28;20100;-61
2023/11/16 01:20:18;;;;;;;0.50;0.50;;;;;;;12.56;53.68;96729.19;5067836;28;20056;-61
2023/11/16 01:22:50;;;;;;;0.50;0.50;;;;;;;12.57;54.97;96725.19;5086049;28;20066;-61
2023/11/16 01:25:19;;;;;;;0.50;0.50;;;;;;;12.34;52.53;96710.81;5085517;28;20048;-61
2023/11/16 01:27:51;;;;;;;0.50;0.50;;;;;;;12.48;52.22;96722.00;5085408;28;20131;-62
2023/11/16 01:30:18;;;;;;;0.50;0.50;;;;;;;12.25;51.65;96679.81;5085580;28;20425;-60
2023/11/16 01:32:45;;;;;;;0.50;0.50;;;;;;;12.59;51.45;96739.50;5085856;28;20132;-61
2023/11/16 01:35:12;;;;;;;0.50;0.50;;;;;;;12.56;51.42;96718.06;5084587;28;20054;-62
2023/11/16 01:37:39;;;;;;;0.50;0.50;;;;;;;12.55;49.81;96722.00;5084385;28;20150;-60
2023/11/16 01:40:06;;;;;;;0.55;0.55;;;;;;;12.59;49.92;96708.94;5085356;28;20433;-61
2023/11/16 01:42:34;;;;;;;0.50;0.50;;;;;;;12.56;49.93;96704.16;5085995;28;20048;-61
2023/11/16 01:45:01;;;;;;;0.60;0.60;;;;;;;12.58;49.92;96726.81;5086151;28;20056;-61
2023/11/16 01:47:27;;;;;;;0.50;0.50;;;;;;;12.57;49.31;96711.31;5084680;28;20444;-61
2023/11/16 01:49:54;;;;;;;0.50;0.50;;;;;;;12.32;49.41;96668.75;5085900;28;20135;-60
2023/11/16 01:52:21;;;;;;;0.50;0.50;;;;;;;12.70;49.12;96729.22;5085579;28;20127;-62
2023/11/16 01:54:48;;;;;;;0.60;0.60;;;;;;;12.69;49.34;96727.66;5067429;28;20413;-62
2023/11/16 01:57:15;;;;;;;0.50;0.50;;;;;;;12.57;49.58;96722.41;5085057;28;20051;-61
2023/11/16 01:59:42;;;;;;;0.50;0.50;;;;;;;12.51;49.02;96723.97;5085246;28;20139;-61
2023/11/16 02:02:11;;;;;;;0.55;0.55;;;;;;;12.56;49.26;96712.50;5070749;28;20155;-61
2023/11/16 02:04:39;;;;;;;0.50;0.50;;;;;;;12.52;48.66;96711.69;5065266;28;20045;-61
2023/11/16 02:07:06;;;;;;;0.50;0.50;;;;;;;12.55;48.93;96699.78;5065112;28;20056;-60
2023/11/16 02:09:33;;;;;;;0.50;0.50;;;;;;;12.60;47.85;96695.84;5065129;28;20045;-61
2023/11/16 02:12:00;;;;;;;0.50;0.50;;;;;;;12.42;48.50;96695.78;5064044;28;20055;-62
2023/11/16 02:14:27;;;;;;;0.50;0.50;;;;;;;12.47;48.10;96716.81;5064402;28;20057;-61
2023/11/16 02:16:56;;;;;;;0.50;0.50;;;;;;;12.05;47.36;96623.00;5080245;28;20427;-61
2023/11/16 02:19:30;;;;;;;0.50;0.50;;;;;;;12.66;47.56;96711.72;5064601;28;20056;-61
2023/11/16 02:21:58;;;;;;;0.52;0.52;;;;;;;12.59;47.66;96716.47;5064944;28;20045;-61
2023/11/16 02:24:26;;;;;;;0.50;0.50;;;;;;;12.67;47.61;96718.09;5063234;28;20583;-61
2023/11/16 02:26:54;;;;;;;0.50;0.50;;;;;;;12.07;47.88;96648.41;5064722;28;20045;-61
2023/11/16 02:29:20;;;;;;;0.50;0.50;;;;;;;12.63;48.14;96718.06;5064559;28;20431;-61
2023/11/16 02:31:47;;;;;;;0.60;0.60;;;;;;;12.42;48.05;96712.44;5064337;28;20056;-61
2023/11/16 02:34:14;;;;;;;0.50;0.50;;;;;;;12.54;47.70;96736.28;5064950;28;20555;-61
2023/11/16 02:36:40;;;;;;;0.50;0.50;;;;;;;12.47;48.17;96730.72;5063380;28;20041;-60
2023/11/16 02:39:08;;;;;;;0.57;0.57;;;;;;;12.43;48.46;96741.81;5064722;28;20153;-62
2023/11/16 02:41:36;;;;;;;0.50;0.50;;;;;;;11.68;50.32;96672.38;5061508;28;20056;-61
2023/11/16 02:44:03;;;;;;;0.50;0.50;;;;;;;11.47;52.07;96683.28;5064240;28;20056;-60
2023/11/16 02:46:31;;;;;;;0.50;0.50;;;;;;;11.94;49.77;96756.19;5064140;28;20621;-60
2023/11/16 02:48:58;;;;;;;0.50;0.50;;;;;;;11.32;48.82;96637.19;5062640;28;20316;-61
2023/11/16 02:51:25;;;;;;;0.50;0.50;;;;;;;11.86;50.14;96739.88;5064480;28;20048;-61
2023/11/16 02:53:54;;;;;;;0.40;0.40;;;;;;;12.08;49.09;96769.38;5064128;28;20110;-61
2023/11/16 02:56:21;;;;;;;0.50;0.50;;;;;;;12.10;49.83;96772.56;5064063;28;20220;-60
2023/11/16 02:58:48;;;;;;;0.60;0.60;;;;;;;12.00;50.33;96773.28;5062525;28;20139;-60
2023/11/16 03:01:14;;;;;;;0.50;0.50;;;;;;;11.59;49.62;96708.72;5063885;28;20508;-61
2023/11/16 03:03:41;;;;;;;0.50;0.50;;;;;;;11.96;49.68;96784.38;5063948;28;20139;-62
2023/11/16 03:06:08;;;;;;;0.50;0.50;;;;;;;12.03;49.97;96780.81;5064061;28;20053;-60
2023/11/16 03:08:35;;;;;;;0.50;0.50;;;;;;;12.02;49.80;96782.03;5064382;28;20056;-61
2023/11/16 03:11:02;;;;;;;0.50;0.50;;;;;;;12.05;50.30;96786.78;5064351;28;20130;-61
2023/11/16 03:13:30;;;;;;;0.50;0.50;;;;;;;12.00;50.70;96787.16;5062491;28;20063;-61
2023/11/16 03:15:58;;;;;;;0.50;0.50;;;;;;;11.24;51.70;96702.88;5062493;28;20049;-61
2023/11/16 03:18:25;;;;;;;0.50;0.50;;;;;;;11.33;51.91;96746.94;5062509;28;20075;-61
2023/11/16 03:20:52;;;;;;;0.50;0.50;;;;;;;11.42;52.26;96800.09;5064003;28;20144;-62
2023/11/16 03:23:19;;;;;;;0.40;0.40;;;;;;;10.89;53.97;96813.38;5063436;28;20052;-61
2023/11/16 03:25:46;;;;;;;0.40;0.40;;;;;;;9.95;55.71;96752.78;5062301;28;20052;-62
2023/11/16 03:28:15;;;;;;;0.50;0.50;;;;;;;10.38;56.46;96810.38;5063849;28;20521;-61
2023/11/16 03:30:42;;;;;;;0.40;0.40;;;;;;;9.94;57.29;96740.09;5063667;28;20044;-62
2023/11/16 03:33:11;;;;;;;0.50;0.50;;;;;;;10.37;57.87;96819.03;5062435;28;20125;-61
2023/11/16 03:35:39;;;;;;;0.47;0.47;;;;;;;10.26;58.07;96807.00;5063908;28;20059;-62
2023/11/16 03:38:05;;;;;;;0.50;0.50;;;;;;;10.15;59.92;96801.34;5064070;28;20056;-61
2023/11/16 03:40:32;;;;;;;0.50;0.50;;;;;;;10.22;57.61;96811.72;5062495;28;20052;-60
2023/11/16 03:42:59;;;;;;;0.40;0.40;;;;;;;10.52;54.95;96804.22;5064050;28;20044;-60
2023/11/16 03:45:26;;;;;;;0.50;0.50;;;;;;;10.75;54.72;96842.91;5055488;28;20075;-61
2023/11/16 03:47:53;;;;;;;0.40;0.40;;;;;;;10.83;54.86;96839.84;5069168;28;20052;-61
2023/11/16 03:50:19;;;;;;;0.40;0.40;;;;;;;10.78;55.16;96850.47;5063698;28;20053;-61
2023/11/16 03:52:46;;;;;;;0.45;0.45;;;;;;;10.72;55.85;96863.84;5056888;28;20052;-61
2023/11/16 03:55:13;;;;;;;0.40;0.40;;;;;;;10.54;56.38;96863.59;5062312;28;20053;-61
2023/11/16 03:57:40;;;;;;;0.50;0.50;;;;;;;10.50;57.00;96868.28;5062510;28;20490;-61
2023/11/16 04:00:08;;;;;;;0.45;0.45;;;;;;;10.33;57.37;96868.03;5062063;28;20143;-61
2023/11/16 04:02:35;;;;;;;0.50;0.50;;;;;;;10.34;56.26;96858.53;5062060;28;20507;-61
2023/11/16 04:05:05;;;;;;;0.50;0.50;;;;;;;10.59;55.51;96857.72;5061806;28;20516;-61
2023/11/16 04:07:34;;;;;;;0.40;0.40;;;;;;;10.63;54.32;96816.25;5062986;28;20048;-61
2023/11/16 04:10:03;;;;;;;0.40;0.40;;;;;;;11.07;54.19;96867.06;5063486;28;20151;-63
2023/11/16 04:12:31;;;;;;;0.50;0.50;;;;;;;11.11;54.75;96880.97;5063463;28;20478;-60
2023/11/16 04:14:57;;;;;;;0.40;0.40;;;;;;;10.19;56.06;96863.09;5063833;28;20061;-61
2023/11/16 04:17:26;;;;;;;0.45;0.45;;;;;;;10.55;57.25;96898.44;5045642;28;20072;-62
2023/11/16 04:19:53;;;;;;;0.50;0.50;;;;;;;10.43;57.52;96895.09;5062084;28;20052;-61
2023/11/16 04:22:21;;;;;;;0.50;0.50;;;;;;;9.89;56.36;96820.69;5063140;28;20526;-61
2023/11/16 04:24:51;;;;;;;0.50;0.50;;;;;;;10.73;54.69;96897.88;5063230;28;20079;-62
2023/11/16 04:27:20;;;;;;;0.50;0.50;;;;;;;11.04;52.97;96887.22;5045458;28;20588;-61
2023/11/16 04:29:47;;;;;;;0.50;0.50;;;;;;;11.39;52.58;96909.03;5045724;28;20106;-61
2023/11/16 04:32:14;;;;;;;0.50;0.50;;;;;;;11.47;52.57;96902.38;5061843;28;20056;-62
2023/11/16 04:34:42;;;;;;;0.50;0.50;;;;;;;11.56;52.92;96919.53;5061750;28;20048;-62
2023/11/16 04:37:10;;;;;;;0.40;0.40;;;;;;;11.56;52.77;96925.88;5048636;28;20064;-61
2023/11/16 04:39:37;;;;;;;0.50;0.50;;;;;;;10.73;52.78;96830.22;5066802;28;20141;-61
2023/11/16 04:42:04;;;;;;;0.50;0.50;;;;;;;11.54;52.50;96930.22;5066354;28;20052;-63
2023/11/16 04:44:34;;;;;;;0.50;0.50;;;;;;;11.57;52.70;96926.69;5065984;28;20048;-61
2023/11/16 04:47:01;;;;;;;0.50;0.50;;;;;;;11.70;52.25;96930.81;5048738;28;20426;-62
2023/11/16 04:49:28;;;;;;;0.50;0.50;;;;;;;11.63;52.34;96922.41;5048568;28;20609;-60
2023/11/16 04:51:54;;;;;;;0.50;0.50;;;;;;;11.08;52.71;96852.03;5066607;28;20080;-60
2023/11/16 04:54:21;;;;;;;0.50;0.50;;;;;;;11.61;52.70;96944.16;5066682;28;20057;-60
2023/11/16 04:56:48;;;;;;;0.50;0.50;;;;;;;11.57;52.35;96948.88;5066138;28;20058;-61
2023/11/16 04:59:15;;;;;;;0.50;0.50;;;;;;;11.77;51.50;96947.53;5064968;28;20056;-62
2023/11/16 05:01:41;;;;;;;0.50;0.50;;;;;;;11.88;51.26;96965.09;5066645;28;20049;-61
2023/11/16 05:04:08;;;;;;;0.50;0.50;;;;;;;11.75;51.40;96949.88;5081816;28;20056;-61
2023/11/16 05:06:39;;;;;;;0.50;0.50;;;;;;;11.69;51.13;96918.13;5064903;28;20048;-60
2023/11/16 05:09:07;;;;;;;0.50;0.50;;;;;;;11.25;51.15;96842.31;5066398;28;20053;-61
2023/11/16 05:11:33;;;;;;;0.50;0.50;;;;;;;11.87;51.49;96969.06;5081275;28;20048;-61
2023/11/16 05:14:00;;;;;;;0.40;0.40;;;;;;;11.78;51.80;96968.56;5078680;28;20338;-62
2023/11/16 05:16:27;;;;;;;0.50;0.50;;;;;;;11.82;52.08;96961.06;5086370;28;20048;-61
2023/11/16 05:18:54;;;;;;;0.50;0.50;;;;;;;11.81;52.20;96982.47;5068249;28;20489;-61
2023/11/16 05:21:21;;;;;;;0.50;0.50;;;;;;;11.50;51.82;96898.84;5086229;28;20051;-62
2023/11/16 05:23:49;;;;;;;0.60;0.60;;;;;;;11.89;51.85;96977.78;5086072;28;20127;-60
2023/11/16 05:26:16;;;;;;;0.50;0.50;;;;;;;11.86;51.83;96973.00;5085790;28;20094;-61
2023/11/16 05:28:43;;;;;;;0.50;0.50;;;;;;;11.88;51.89;96987.31;5067715;28;20085;-61
2023/11/16 05:31:11;;;;;;;0.60;0.60;;;;;;;11.94;51.85;96991.34;5067456;28;20055;-61
2023/11/16 05:33:38;;;;;;;0.50;0.50;;;;;;;11.93;52.78;97000.84;5085915;28;20071;-61
2023/11/16 05:36:06;;;;;;;0.50;0.50;;;;;;;11.90;52.34;96980.19;5085692;28;20075;-61
2023/11/16 05:38:32;;;;;;;0.50;0.50;;;;;;;11.92;51.91;97022.25;5085283;28;20430;-63
2023/11/16 05:40:59;;;;;;;0.50;0.50;;;;;;;12.05;51.72;96987.50;5066311;28;20056;-61
2023/11/16 05:43:27;;;;;;;0.50;0.50;;;;;;;12.12;50.97;96992.31;5085118;28;20147;-61
2023/11/16 05:45:53;;;;;;;0.50;0.50;;;;;;;11.89;51.57;96955.59;5066666;28;20048;-61
2023/11/16 05:48:20;;;;;;;0.60;0.60;;;;;;;12.18;51.21;96985.25;5084513;28;20429;-62
2023/11/16 05:50:47;;;;;;;0.60;0.60;;;;;;;12.04;50.64;96974.78;5084426;28;20044;-61
2023/11/16 05:53:14;;;;;;;0.50;0.50;;;;;;;12.32;50.43;97007.59;5085204;28;20157;-61
2023/11/16 05:55:42;;;;;;;0.50;0.50;;;;;;;12.34;50.39;97016.34;5085992;28;20052;-61
2023/11/16 05:58:09;;;;;;;0.50;0.50;;;;;;;12.43;49.87;97008.50;5067341;28;20056;-62
2023/11/16 06:00:36;;;;;;;0.50;0.50;;;;;;;12.49;49.18;97009.72;5084994;28;20059;-61
2023/11/16 06:03:05;;;;;;;0.50;0.50;;;;;;;12.61;48.76;97006.69;5065294;28;20563;-60
2023/11/16 06:05:35;;;;;;;0.50;0.50;;;;;;;12.63;48.58;97007.06;5064818;28;20109;-61
2023/11/16 06:08:01;;;;;;;0.55;0.55;;;;;;;12.68;48.78;97009.50;5065096;28;20044;-61
2023/11/16 06:10:28;;;;;;;0.60;0.60;;;;;;;12.59;48.82;96995.13;5065071;28;20072;-61
2023/11/16 06:12:57;;;;;;;0.57;0.57;;;;;;;12.23;48.43;96926.56;5063693;28;20057;-61
2023/11/16 06:15:25;;;;;;;0.50;0.50;;;;;;;12.82;47.21;97015.16;5064340;28;20160;-60
2023/11/16 06:17:57;;;;;;;0.55;0.55;;;;;;;12.68;47.37;96953.91;5064518;28;20106;-61
2023/11/16 06:20:24;;;;;;;0.50;0.50;;;;;;;13.32;46.91;97039.41;5062872;28;20428;-61
2023/11/16 06:22:51;;;;;;;0.60;0.60;;;;;;;13.29;45.21;97040.16;5062251;28;20511;-61
2023/11/16 06:25:18;;;;;;;0.57;0.57;;;;;;;12.93;45.97;96966.00;5064283;28;20060;-61
2023/11/16 06:27:46;;;;;;;0.60;0.60;;;;;;;12.83;45.75;96938.94;5062673;28;20451;-62
2023/11/16 06:30:13;;;;;;;0.50;0.50;;;;;;;13.56;45.67;97038.72;5063604;28;20056;-60
2023/11/16 06:32:42;;;;;;;0.50;0.50;;;;;;;13.59;45.79;97037.94;5063235;28;20063;-60
2023/11/16 06:35:10;;;;;;;0.60;0.60;;;;;;;13.57;46.25;97045.91;5054668;28;20067;-61
2023/11/16 06:37:38;;;;;;;0.60;0.60;;;;;;;13.08;47.09;97001.09;5053226;28;20478;-63
2023/11/16 06:40:07;;;;;;;0.60;0.60;;;;;;;13.26;46.61;96968.59;5061161;28;20060;-61
2023/11/16 06:42:36;;;;;;;0.60;0.60;;;;;;;13.91;46.32;97042.88;5061875;28;20040;-61
2023/11/16 06:45:05;;;;;;;0.60;0.60;;;;;;;14.06;45.69;97036.97;5056322;28;20135;-64
2023/11/16 06:47:33;;;;;;;0.60;0.60;;;;;;;14.08;45.63;97025.44;5061338;28;20049;-68
2023/11/16 06:50:04;;;;;;;0.60;0.60;;;;;;;14.20;45.04;97050.13;5059237;28;20589;-59
2023/11/16 06:52:36;;;;;;;0.60;0.60;;;;;;;14.36;44.63;97050.59;5057364;28;20059;-63
2023/11/16 06:55:04;;;;;;;0.60;0.60;;;;;;;14.16;44.35;97007.53;5061569;28;20048;-61
2023/11/16 06:57:33;;;;;;;0.60;0.60;;;;;;;14.58;43.69;97066.16;5046812;28;20052;-61
2023/11/16 07:00:02;;;;;;;0.60;0.60;;;;;;;14.64;43.67;97053.44;5059238;28;20394;-67
2023/11/16 07:02:29;;;;;;;0.60;0.60;;;;;;;14.76;43.49;97067.00;5060471;28;20060;-62
2023/11/16 07:04:58;;;;;;;0.60;0.60;;;;;;;14.72;43.80;97032.72;5060553;28;20055;-63
2023/11/16 07:07:24;;;;;;;0.60;0.60;;;;;;;13.95;43.37;96910.81;5061005;28;20052;-61
2023/11/16 07:09:51;;;;;;;0.70;0.70;;;;;;;14.57;44.40;97028.34;5061327;28;20558;-62
2023/11/16 07:12:20;;;;;;;0.70;0.70;;;;;;;14.86;44.42;97072.59;5059311;28;20044;-67
2023/11/16 07:14:48;;;;;;;0.60;0.60;;;;;;;15.03;43.79;97062.66;5069162;28;20056;-62
2023/11/16 07:17:20;;;;;;;0.65;0.65;;;;;;;15.09;44.00;97063.84;5043656;28;20151;-64
2023/11/16 07:19:50;;;;;;;0.60;0.60;;;;;;;15.12;43.22;97063.03;5060901;28;20163;-63
2023/11/16 07:22:18;;;;;;;0.60;0.60;;;;;;;12.71;42.41;96714.13;5060272;28;20052;-68
2023/11/16 07:24:45;;;;;;;0.60;0.60;;;;;;;14.82;42.58;97004.06;5053128;28;20052;-63
2023/11/16 07:27:13;;;;;;;0.60;0.60;;;;;;;15.22;42.48;97039.91;5044854;28;20051;-65
2023/11/16 07:29:43;;;;;;;0.70;0.70;;;;;;;15.33;42.00;97060.22;5065589;28;20057;-59
2023/11/16 07:32:12;;;;;;;0.65;0.65;;;;;;;15.18;42.78;97053.88;5064462;28;20068;-64
2023/11/16 07:34:42;;;;;;;0.60;0.60;;;;;;;15.60;43.91;97103.28;5061061;28;20133;-65
2023/11/16 07:37:11;;;;;;;0.70;0.70;;;;;;;15.19;42.96;97057.44;5068857;28;20048;-68
2023/11/16 07:39:38;;;;;;;0.63;0.63;;;;;;;15.77;42.87;97110.84;5045011;28;20099;-61
2023/11/16 07:42:07;;;;;;;0.65;0.65;;;;;;;14.42;43.08;96901.31;5061380;28;20055;-61
2023/11/16 07:44:34;;;;;;;0.60;0.60;;;;;;;15.94;42.13;97110.00;5063481;28;20068;-63
2023/11/16 07:47:01;;;;;;;0.70;0.70;;;;;;;15.79;42.41;97079.72;5044650;28;20070;-67
2023/11/16 07:49:28;;;;;;;0.60;0.60;;;;;;;15.95;41.39;97124.78;5063027;28;20050;-60
2023/11/16 07:51:55;;;;;;;0.70;0.70;;;;;;;15.77;40.97;97099.66;5044402;28;20063;-63
2023/11/16 07:54:22;;;;;;;0.70;0.70;;;;;;;15.79;41.51;97113.22;5045335;28;20515;-64
2023/11/16 07:56:52;;;;;;;0.70;0.70;;;;;;;15.78;42.05;97114.41;5067855;28;20048;-62
2023/11/16 07:59:30;;;;;;;0.60;0.60;;;;;;;14.78;42.30;96980.94;5071238;28;20443;-64
2023/11/16 08:02:00;;;;;;;0.70;0.70;;;;;;;14.79;42.85;97041.91;5062616;28;20504;-66
2023/11/16 08:04:29;;;;;;;0.60;0.60;;;;;;;14.91;42.43;97075.00;5063376;28;20044;-65
2023/11/16 08:06:59;;;;;;;0.60;0.60;;;;;;;15.05;43.22;97133.56;5044777;28;20574;-63
2023/11/16 08:09:29;;;;;;;0.60;0.60;;;;;;;15.07;43.33;97138.75;5063253;28;20130;-62
2023/11/16 08:11:57;;;;;;;0.60;0.60;;;;;;;15.22;42.95;97134.00;5065434;28;20155;-63
2023/11/16 08:14:25;;;;;;;0.60;0.60;;;;;;;15.05;43.35;97128.00;5055222;28;20063;-64
2023/11/16 08:16:58;;;;;;;0.70;0.70;;;;;;;15.03;43.56;97116.44;5047697;28;20056;-61
2023/11/16 08:19:26;;;;;;;;;;;;;;;14.95;42.99;97148.28;5049652;28;20046;-62
2023/11/16 08:21:56;;;;;;;0.57;0.57;;;;;;;14.87;42.58;97151.50;5066684;28;19924;-63
2023/11/16 08:24:25;;;;;;;0.60;0.60;;;;;;;14.64;42.65;97109.19;5049040;28;20060;-64
2023/11/16 08:26:56;;;;;;;0.60;0.60;;;;;;;14.88;42.65;97136.34;5048502;28;20056;-62
2023/11/16 08:29:24;;;;;;;0.70;0.70;;;;;;;15.05;41.85;97146.72;5066628;28;20084;-64
2023/11/16 08:31:56;;;;;;;0.60;0.60;;;;;;;14.95;40.80;97144.72;5066341;28;20053;-63
2023/11/16 08:34:24;;;;;;;0.55;0.55;;;;;;;14.85;40.78;97131.56;5066678;28;20052;-62
2023/11/16 08:36:51;;;;;;;0.70;0.70;;;;;;;15.15;41.15;97132.00;5047663;28;20075;-63
2023/11/16 08:39:18;;;;;;;0.60;0.60;;;;;;;15.12;42.09;97110.47;5069657;28;20428;-62
2023/11/16 08:41:45;;;;;;;0.60;0.60;;;;;;;15.27;41.63;97153.13;5066224;28;20060;-63
2023/11/16 08:44:12;;;;;;;0.70;0.70;;;;;;;14.44;42.05;97038.28;5066629;28;20082;-64
2023/11/16 08:46:43;;;;;;;0.70;0.70;;;;;;;15.22;41.63;97156.31;5048170;28;20135;-61
2023/11/16 08:49:11;;;;;;;0.60;0.60;;;;;;;14.68;41.79;97087.72;5048559;28;20428;-63
2023/11/16 08:51:40;;;;;;;0.52;0.52;;;;;;;14.63;42.24;97094.47;5046945;28;20131;-62
2023/11/16 08:54:08;;;;;;;0.60;0.60;;;;;;;14.89;42.80;97135.94;5065275;28;20045;-64
2023/11/16 08:56:35;;;;;;;0.60;0.60;;;;;;;15.01;42.73;97131.97;5065661;28;20052;-62
2023/11/16 08:59:09;;;;;;;0.60;0.60;;;;;;;12.67;41.94;96774.47;5049456;28;20045;-61
2023/11/16 09:01:39;;;;;;;0.70;0.70;;;;;;;14.41;42.51;97058.59;5065653;28;20063;-63
2023/11/16 09:04:08;;;;;;;0.68;0.68;;;;;;;15.17;42.58;97157.50;5066065;28;20385;-63
2023/11/16 09:06:36;;;;;;;0.60;0.60;;;;;;;15.27;41.70;97172.66;5047239;28;20056;-63
2023/11/16 09:09:09;;;;;;;0.60;0.60;;;;;;;15.44;41.95;97153.16;5064702;28;20044;-65
2023/11/16 09:11:36;;;;;;;0.63;0.63;;;;;;;15.27;41.76;97091.72;5064757;28;20117;-62
2023/11/16 09:14:06;;;;;;;0.70;0.70;;;;;;;15.83;41.56;97151.13;5057397;28;20061;-63
2023/11/16 09:16:33;;;;;;;0.70;0.70;;;;;;;15.87;41.02;97140.72;5064342;28;20088;-63
2023/11/16 09:19:00;;;;;;;0.60;0.60;;;;;;;15.94;40.94;97121.16;5066037;28;20094;-62
2023/11/16 09:21:29;;;;;;;0.63;0.63;;;;;;;16.29;40.56;97154.59;5064734;28;20072;-61
2023/11/16 09:23:56;;;;;;;0.70;0.70;;;;;;;15.53;40.02;97069.00;5065899;28;20055;-62
2023/11/16 09:26:23;;;;;;;0.70;0.70;;;;;;;16.42;39.67;97166.13;5065239;28;20131;-62
2023/11/16 09:28:52;;;;;;;0.70;0.70;;;;;;;14.99;39.57;96875.75;5065278;28;20052;-63
2023/11/16 09:31:33;;;;;;;0.60;0.60;;;;;;;16.67;39.09;97152.88;5063795;28;20141;-64
2023/11/16 09:34:01;;;;;;;0.70;0.70;;;;;;;16.83;38.99;97161.56;5042405;28;20133;-64
2023/11/16 09:36:28;;;;;;;0.70;0.70;;;;;;;16.95;39.09;97149.91;5050494;28;20052;-64
2023/11/16 09:38:58;;;;;;;0.70;0.70;;;;;;;15.59;38.64;96914.59;5063384;28;20542;-62
2023/11/16 09:41:28;;;;;;;0.70;0.70;;;;;;;16.82;38.68;97104.00;5062907;28;20044;-60
2023/11/16 09:44:04;;;;;;;0.60;0.60;;;;;;;17.06;38.19;97163.81;5063141;28;20133;-61
2023/11/16 09:46:32;;;;;;;0.70;0.70;;;;;;;16.88;37.43;97163.16;5063469;28;20431;-60
2023/11/16 09:49:05;;;;;;;0.70;0.70;;;;;;;16.82;38.01;97153.59;5062069;28;20074;-64
2023/11/16 09:51:36;;;;;;;0.73;0.73;;;;;;;16.21;38.88;97088.75;5063665;28;20057;-63
2023/11/16 09:54:08;;;;;;;0.70;0.70;;;;;;;16.26;39.43;97144.22;5063335;28;20048;-63
2023/11/16 09:56:36;;;;;;;0.70;0.70;;;;;;;15.82;39.38;97107.59;5062877;28;20049;-63
2023/11/16 09:59:13;;;;;;;0.70;0.70;;;;;;;16.39;38.65;97136.19;5072286;28;20090;-66
2023/11/16 10:01:52;;;;;;;0.70;0.70;;;;;;;16.76;38.54;97138.41;5066576;28;20084;-59
2023/11/16 10:04:20;;;;;;;0.70;0.70;;;;;;;16.86;38.82;97110.38;5077302;28;20059;-61
2023/11/16 10:06:49;;;;;;;0.70;0.70;;;;;;;16.75;38.51;97131.22;5075055;28;20074;-63
2023/11/16 10:09:17;;;;;;;0.77;0.77;;;;;;;17.04;38.45;97132.66;5061920;28;20051;-61
2023/11/16 10:11:44;;;;;;;0.70;0.70;;;;;;;16.85;37.58;97097.59;5063006;28;20374;-63
2023/11/16 10:14:12;;;;;;;0.70;0.70;;;;;;;16.87;37.55;97144.75;5062813;28;20144;-61
2023/11/16 10:16:39;;;;;;;0.70;0.70;;;;;;;17.03;37.90;97126.25;5062665;28;20105;-62
2023/11/16 10:19:10;;;;;;;0.80;0.80;;;;;;;17.09;37.99;97123.81;5044873;28;20075;-62
2023/11/16 10:21:42;;;;;;;0.70;0.70;;;;;;;16.74;37.88;97056.91;5044938;28;20469;-61
2023/11/16 10:24:10;;;;;;;0.70;0.70;;;;;;;16.94;38.18;97097.13;5062916;28;20059;-62
2023/11/16 10:26:39;;;;;;;0.70;0.70;;;;;;;16.81;37.22;97090.44;5062526;28;20056;-60
2023/11/16 10:29:06;;;;;;;0.70;0.70;;;;;;;16.96;37.84;97097.53;5064618;28;20102;-63
2023/11/16 10:31:34;;;;;;;0.75;0.75;;;;;;;17.30;37.88;97126.44;5046490;28;20056;-61
2023/11/16 10:34:04;;;;;;;0.70;0.70;;;;;;;16.68;37.33;97008.22;5063375;28;20059;-62
2023/11/16 10:36:32;;;;;;;0.70;0.70;;;;;;;16.75;37.55;97059.31;5064492;28;20573;-61
2023/11/16 10:39:01;;;;;;;0.80;0.80;;;;;;;17.17;37.69;97074.97;5064372;28;20055;-61
2023/11/16 10:41:29;;;;;;;0.70;0.70;;;;;;;17.13;38.20;97052.63;5062563;28;20424;-67
2023/11/16 10:43:57;;;;;;;0.70;0.70;;;;;;;17.85;37.93;97110.38;5062849;28;20071;-61
2023/11/16 10:46:30;;;;;;;0.80;0.80;;;;;;;17.29;36.88;97016.44;5042848;28;20045;-59
2023/11/16 10:48:57;;;;;;;0.70;0.70;;;;;;;17.64;36.55;97060.16;5061127;28;20048;-65
2023/11/16 10:51:27;;;;;;;0.80;0.80;;;;;;;17.21;36.06;97008.56;5069277;28;20059;-62
2023/11/16 10:53:57;;;;;;;0.70;0.70;;;;;;;17.10;37.42;97052.63;5040226;28;20057;-60
2023/11/16 10:56:24;;;;;;;0.80;0.80;;;;;;;17.47;37.23;97111.53;5059853;28;20427;-62
2023/11/16 10:58:52;;;;;;;0.80;0.80;;;;;;;16.82;37.40;97053.66;5057913;28;20131;-64
2023/11/16 11:01:19;;;;;;;0.70;0.70;;;;;;;17.38;37.45;97103.59;5051834;28;20910;-61
2023/11/16 11:03:48;;;;;;;0.70;0.70;;;;;;;17.22;36.89;97066.13;5060436;28;20585;-64
2023/11/16 11:06:21;;;;;;;0.70;0.70;;;;;;;17.12;36.75;97062.19;5057259;28;20413;-59
2023/11/16 11:08:53;;;;;;;0.70;0.70;;;;;;;17.36;36.07;97071.59;5039772;28;20048;-61
2023/11/16 11:11:24;;;;;;;0.70;0.70;;;;;;;16.90;36.51;97004.03;5061090;28;20051;-62
2023/11/16 11:13:55;;;;;;;0.70;0.70;;;;;;;16.64;36.94;96986.63;5059736;28;20080;-64
2023/11/16 11:16:26;;;;;;;0.70;0.70;;;;;;;17.18;37.21;97076.56;5061599;28;20044;-64
2023/11/16 11:18:54;;;;;;;0.70;0.70;;;;;;;17.46;37.22;97104.34;5060041;28;20152;-66
2023/11/16 11:21:23;;;;;;;0.75;0.75;;;;;;;17.17;37.06;97080.56;5047883;28;20555;-61
2023/11/16 11:24:05;;;;;;;0.70;0.70;;;;;;;17.02;35.72;97090.28;5062606;28;20045;-64
2023/11/16 11:26:42;;;;;;;0.70;0.70;;;;;;;17.17;35.90;97109.34;5044873;28;20075;-62
2023/11/16 11:29:10;;;;;;;0.68;0.68;;;;;;;17.21;35.74;97096.16;5063350;28;20135;-61
2023/11/16 11:31:50;;;;;;;0.73;0.73;;;;;;;16.67;36.15;96998.22;5045298;28;20052;-61
2023/11/16 11:34:26;;;;;;;0.70;0.70;;;;;;;17.25;35.78;97101.69;5062734;28;20147;-61
2023/11/16 11:36:53;;;;;;;0.70;0.70;;;;;;;17.08;35.92;97063.44;5063118;28;20511;-62
2023/11/16 11:39:26;;;;;;;0.80;0.80;;;;;;;17.34;36.35;97090.84;5062676;28;20505;-63